Time;durP1;ratioP1;P1;durP2;ratioP2;P2;SDS_P1;SDS_P2;PMS_P1;PMS_P2;Temp;Humidity;BMP_temperature;BMP_pressure;BME280_temperature;BME280_humidity;BME280_pressure;Samples;Min_cycle;Max_cycle;Signal;HPM_P1;HPM_P2
2023/07/13 00:01:15;;;;;;;4.68;3.30;;;;;;;30.46;41.99;99997.13;5093699;28;20052;-78
2023/07/13 00:03:45;;;;;;;6.40;3.15;;;;;;;30.44;42.04;99980.00;5093658;28;20051;-76
2023/07/13 00:06:14;;;;;;;4.65;2.88;;;;;;;30.44;42.06;99982.75;5093843;28;20078;-78
2023/07/13 00:08:42;;;;;;;6.15;3.45;;;;;;;30.45;42.01;99989.94;5093350;28;20509;-77
2023/07/13 00:11:10;;;;;;;5.13;2.85;;;;;;;30.44;42.25;99991.00;5093456;28;20090;-75
2023/07/13 00:13:39;;;;;;;4.90;3.25;;;;;;;30.44;42.24;99991.00;5093818;28;20120;-77
2023/07/13 00:16:08;;;;;;;5.95;3.38;;;;;;;30.43;42.08;99953.56;5093452;28;20497;-77
2023/07/13 00:18:38;;;;;;;5.43;3.25;;;;;;;30.41;42.32;99937.28;5093090;28;20044;-77
2023/07/13 00:21:07;;;;;;;5.43;3.20;;;;;;;30.40;42.41;99931.97;5093426;28;20139;-77
2023/07/13 00:23:37;;;;;;;4.50;3.20;;;;;;;30.41;42.33;99928.19;5093452;28;20051;-77
2023/07/13 00:26:07;;;;;;;3.83;2.80;;;;;;;30.40;42.46;99909.97;5093496;28;20044;-77
2023/07/13 00:28:36;;;;;;;4.68;2.97;;;;;;;30.39;42.37;99891.78;5093629;28;20087;-76
2023/07/13 00:31:05;;;;;;;5.05;3.00;;;;;;;30.36;42.31;99887.59;5093128;28;20113;-77
2023/07/13 00:33:36;;;;;;;5.05;3.10;;;;;;;30.35;42.54;99883.16;5093326;28;20074;-77
2023/07/13 00:36:07;;;;;;;5.20;3.10;;;;;;;30.36;42.53;99870.25;5093074;28;20048;-77
2023/07/13 00:38:36;;;;;;;4.82;2.83;;;;;;;30.36;42.47;99864.75;5092904;28;20056;-76
2023/07/13 00:41:05;;;;;;;4.57;2.97;;;;;;;30.35;42.50;99857.56;5093219;28;20048;-76
2023/07/13 00:43:33;;;;;;;4.15;2.70;;;;;;;30.35;42.51;99841.06;5093031;28;20047;-76
2023/07/13 00:46:25;;;;;;;4.97;3.05;;;;;;;30.34;42.56;99842.97;5092935;28;20055;-76
2023/07/13 00:48:55;;;;;;;5.47;2.85;;;;;;;30.34;42.56;99853.13;5092969;28;20044;-77
2023/07/13 00:51:31;;;;;;;5.05;2.85;;;;;;;30.32;42.83;99853.38;5092733;28;20087;-77
2023/07/13 00:54:03;;;;;;;3.70;2.40;;;;;;;30.32;42.60;99841.53;5092818;28;20069;-76
2023/07/13 00:56:32;;;;;;;4.32;2.90;;;;;;;30.32;42.50;99830.53;5092678;28;20386;-77
2023/07/13 00:59:01;;;;;;;4.72;2.92;;;;;;;30.30;42.67;99825.22;5092601;28;20040;-77
2023/07/13 01:01:30;;;;;;;5.50;2.67;;;;;;;30.29;42.38;99829.06;5092481;28;20044;-77
2023/07/13 01:03:58;;;;;;;4.07;2.60;;;;;;;30.30;42.51;99824.38;5092630;28;20052;-77
2023/07/13 01:06:30;;;;;;;4.57;2.72;;;;;;;30.27;42.83;99820.19;5092530;28;20040;-76
2023/07/13 01:08:59;;;;;;;4.47;2.60;;;;;;;30.28;42.74;99815.53;5092442;28;20139;-77
2023/07/13 01:11:28;;;;;;;4.15;2.53;;;;;;;30.26;42.66;99817.69;5092541;28;20277;-77
2023/07/13 01:13:56;;;;;;;4.28;2.65;;;;;;;30.26;42.67;99817.69;5092472;28;20418;-77
2023/07/13 01:16:27;;;;;;;4.47;2.70;;;;;;;30.24;42.67;99828.06;5092405;28;20048;-76
2023/07/13 01:18:58;;;;;;;3.60;2.55;;;;;;;30.23;42.66;99823.66;5092167;28;20130;-76
2023/07/13 01:21:31;;;;;;;4.35;2.80;;;;;;;30.23;43.01;99831.91;5092257;28;20059;-78
2023/07/13 01:23:59;;;;;;;4.00;2.60;;;;;;;30.20;42.78;99839.53;5092248;28;20052;-77
2023/07/13 01:26:28;;;;;;;5.43;2.50;;;;;;;30.20;42.96;99828.50;5092001;28;20500;-76
2023/07/13 01:28:57;;;;;;;4.72;2.70;;;;;;;30.18;42.84;99814.16;5092010;28;20044;-77
2023/07/13 01:31:25;;;;;;;4.75;2.60;;;;;;;30.17;43.00;99818.00;5091453;28;20048;-77
2023/07/13 01:33:54;;;;;;;5.13;2.45;;;;;;;30.17;42.69;99834.50;5092059;28;20097;-75
2023/07/13 01:36:22;;;;;;;4.78;2.50;;;;;;;30.16;42.84;99827.31;5092015;28;20048;-76
2023/07/13 01:38:52;;;;;;;4.15;2.30;;;;;;;30.14;42.84;99812.97;5091851;28;20504;-77
2023/07/13 01:41:20;;;;;;;3.53;2.30;;;;;;;30.14;43.03;99812.97;5091534;28;20127;-77
2023/07/13 01:43:48;;;;;;;4.60;2.72;;;;;;;30.12;42.80;99804.09;5091821;28;20120;-77
2023/07/13 01:46:16;;;;;;;4.30;2.60;;;;;;;30.12;43.00;99801.34;5092003;28;20174;-76
2023/07/13 01:48:52;;;;;;;4.22;2.70;;;;;;;30.11;42.92;99802.44;5091867;28;20058;-76
2023/07/13 01:51:20;;;;;;;4.32;2.60;;;;;;;30.09;43.12;99801.78;5091749;28;20084;-75
2023/07/13 01:53:49;;;;;;;4.53;2.65;;;;;;;30.09;42.92;99789.97;5092040;28;20067;-76
2023/07/13 01:56:19;;;;;;;3.83;2.40;;;;;;;30.09;42.95;99784.47;5092013;28;20472;-76
2023/07/13 01:58:47;;;;;;;3.42;2.20;;;;;;;30.08;43.08;99788.28;5091573;28;20054;-76
2023/07/13 02:01:16;;;;;;;4.07;2.50;;;;;;;30.06;43.01;99780.22;5091979;28;20048;-76
2023/07/13 02:03:44;;;;;;;3.67;2.47;;;;;;;30.05;43.13;99778.56;5091579;28;20058;-76
2023/07/13 02:06:12;;;;;;;3.95;2.30;;;;;;;30.05;43.00;99778.56;5091512;28;20062;-76
2023/07/13 02:08:41;;;;;;;3.50;2.28;;;;;;;30.03;43.17;99777.94;5091664;28;20051;-76
2023/07/13 02:11:09;;;;;;;3.53;2.10;;;;;;;30.03;43.05;99777.13;5091628;28;20052;-75
2023/07/13 02:13:39;;;;;;;4.43;2.78;;;;;;;30.02;43.17;99781.78;5091403;28;20109;-76
2023/07/13 02:16:07;;;;;;;3.80;2.20;;;;;;;30.02;43.09;99786.44;5091465;28;20136;-76
2023/07/13 02:18:37;;;;;;;5.50;2.50;;;;;;;30.00;43.01;99792.13;5091391;28;20079;-76
2023/07/13 02:21:05;;;;;;;5.13;2.72;;;;;;;30.00;43.48;99794.06;5091380;28;20503;-76
2023/07/13 02:23:33;;;;;;;4.05;2.30;;;;;;;29.98;43.21;99791.53;5091447;28;20497;-76
2023/07/13 02:26:05;;;;;;;3.03;2.20;;;;;;;29.99;43.08;99792.38;5091386;28;20082;-76
2023/07/13 02:28:33;;;;;;;4.93;2.50;;;;;;;29.96;43.45;99796.44;5091405;28;20059;-76
2023/07/13 02:31:12;;;;;;;3.85;2.45;;;;;;;29.96;43.03;99793.69;5091193;28;20079;-76
2023/07/13 02:33:41;;;;;;;4.28;2.22;;;;;;;29.95;43.23;99786.50;5091183;28;20509;-76
2023/07/13 02:36:09;;;;;;;3.88;2.28;;;;;;;29.95;43.26;99793.91;5091237;28;20398;-76
2023/07/13 02:38:41;;;;;;;3.55;2.28;;;;;;;29.94;43.26;99795.81;5091486;28;20097;-76
2023/07/13 02:41:10;;;;;;;3.53;2.33;;;;;;;29.92;43.23;99806.22;5091230;28;20054;-76
2023/07/13 02:43:39;;;;;;;3.50;2.10;;;;;;;29.91;43.46;99804.50;5094488;28;20543;-76
2023/07/13 02:46:08;;;;;;;3.65;2.15;;;;;;;29.91;43.13;99796.25;5095392;28;20052;-76
2023/07/13 02:48:39;;;;;;;3.72;2.20;;;;;;;29.89;43.15;99787.41;5095286;28;20094;-78
2023/07/13 02:51:08;;;;;;;4.18;2.33;;;;;;;29.90;43.18;99802.84;5095079;28;20040;-74
2023/07/13 02:53:37;;;;;;;4.22;2.60;;;;;;;29.87;43.21;99800.56;5095102;28;20101;-76
2023/07/13 02:56:05;;;;;;;4.75;2.50;;;;;;;29.87;43.30;99800.56;5094827;28;20044;-75
2023/07/13 02:58:36;;;;;;;3.97;2.33;;;;;;;29.87;43.56;99812.38;5094879;28;20083;-76
2023/07/13 03:01:08;;;;;;;3.67;2.25;;;;;;;29.85;43.72;99808.19;5094864;28;20076;-75
2023/07/13 03:03:41;;;;;;;4.20;2.30;;;;;;;29.84;43.66;99807.34;5094673;28;20225;-76
2023/07/13 03:06:09;;;;;;;3.92;2.10;;;;;;;29.84;43.54;99817.50;5094791;28;20500;-76
2023/07/13 03:08:38;;;;;;;4.43;2.50;;;;;;;29.83;43.31;99822.19;5094653;28;20040;-77
2023/07/13 03:11:10;;;;;;;3.70;2.15;;;;;;;29.82;43.44;99827.88;5094870;28;20071;-76
2023/07/13 03:13:39;;;;;;;4.72;2.33;;;;;;;29.81;43.63;99834.44;5094963;28;20055;-76
2023/07/13 03:16:08;;;;;;;3.72;2.45;;;;;;;29.80;43.65;99841.84;5094521;28;20409;-77
2023/07/13 03:18:39;;;;;;;3.20;2.13;;;;;;;29.80;43.51;99841.84;5094791;28;20048;-77
2023/07/13 03:21:07;;;;;;;4.85;2.50;;;;;;;29.79;43.64;99837.41;5094461;28;20050;-77
2023/07/13 03:23:35;;;;;;;3.38;2.05;;;;;;;29.77;43.47;99838.72;5094320;28;20059;-76
2023/07/13 03:26:06;;;;;;;4.05;2.35;;;;;;;29.76;43.81;99840.63;5094811;28;20040;-77
2023/07/13 03:28:34;;;;;;;3.53;2.20;;;;;;;29.77;43.67;99822.22;5094663;28;20048;-76
2023/07/13 03:31:05;;;;;;;3.78;2.33;;;;;;;29.77;43.54;99823.06;5094509;28;20052;-77
2023/07/13 03:33:34;;;;;;;4.05;2.42;;;;;;;29.75;43.77;99838.13;5094352;28;20068;-77
2023/07/13 03:36:04;;;;;;;3.55;2.10;;;;;;;29.75;43.87;99832.63;5094135;28;20120;-76
2023/07/13 03:38:32;;;;;;;4.55;2.30;;;;;;;29.74;43.68;99817.19;5094470;28;20105;-77
2023/07/13 03:41:01;;;;;;;3.60;2.20;;;;;;;29.73;43.96;99810.88;5094298;28;20052;-76
2023/07/13 03:43:29;;;;;;;5.28;2.40;;;;;;;29.72;43.82;99817.41;5094078;28;20051;-78
2023/07/13 03:45:58;;;;;;;3.88;2.30;;;;;;;29.72;43.90;99830.31;5094047;28;20074;-77
2023/07/13 03:48:26;;;;;;;4.43;2.42;;;;;;;29.71;43.91;99839.63;5093846;28;20044;-77
2023/07/13 03:50:54;;;;;;;3.60;2.38;;;;;;;29.70;44.07;99841.53;5093970;28;20059;-74
2023/07/13 03:53:24;;;;;;;3.92;2.22;;;;;;;29.71;43.89;99850.63;5093469;28;20052;-77
2023/07/13 03:55:52;;;;;;;4.97;2.17;;;;;;;29.70;43.71;99851.69;5093607;28;20089;-77
2023/07/13 03:58:32;;;;;;;3.35;2.03;;;;;;;29.68;43.90;99845.59;5093895;28;20059;-77
2023/07/13 04:01:02;;;;;;;3.20;2.10;;;;;;;29.68;44.29;99837.34;5093512;28;20127;-77
2023/07/13 04:03:32;;;;;;;3.70;2.40;;;;;;;29.68;43.93;99842.84;5093796;28;20044;-77
2023/07/13 04:06:01;;;;;;;3.58;1.90;;;;;;;29.67;44.12;99835.66;5093616;28;20059;-77
2023/07/13 04:08:32;;;;;;;4.00;2.05;;;;;;;29.66;44.25;99848.56;5093700;28;20060;-78
2023/07/13 04:11:02;;;;;;;3.95;2.15;;;;;;;29.63;44.27;99855.38;5093556;28;20056;-77
2023/07/13 04:13:31;;;;;;;4.82;2.20;;;;;;;29.64;44.23;99870.78;5093539;28;20504;-77
2023/07/13 04:15:59;;;;;;;3.42;2.03;;;;;;;29.62;44.27;99891.28;5093507;28;20044;-77
2023/07/13 04:18:27;;;;;;;5.47;2.45;;;;;;;29.60;44.31;99905.25;5093603;28;20350;-77
2023/07/13 04:20:55;;;;;;;4.90;2.13;;;;;;;29.62;44.28;99925.09;5093388;28;20131;-77
2023/07/13 04:23:24;;;;;;;4.15;2.03;;;;;;;29.61;44.14;99934.41;5093021;28;20508;-77
2023/07/13 04:25:54;;;;;;;3.85;2.10;;;;;;;29.60;44.45;99932.75;5075358;28;20123;-77
2023/07/13 04:28:23;;;;;;;4.10;1.95;;;;;;;29.60;44.22;99920.91;5092879;28;20083;-77
2023/07/13 04:30:52;;;;;;;3.92;2.10;;;;;;;29.59;44.32;99914.56;5093172;28;20396;-76
2023/07/13 04:33:22;;;;;;;3.65;2.40;;;;;;;29.57;44.39;99916.72;5092914;28;20052;-78
2023/07/13 04:35:56;;;;;;;4.00;2.08;;;;;;;29.58;44.69;99917.53;5093206;28;20512;-77
2023/07/13 04:38:27;;;;;;;3.88;2.10;;;;;;;29.56;44.42;99926.00;5092857;28;20044;-77
2023/07/13 04:40:58;;;;;;;3.35;2.17;;;;;;;29.55;44.55;99935.31;5092848;28;20044;-78
2023/07/13 04:43:27;;;;;;;4.80;2.58;;;;;;;29.55;44.40;99940.81;5093147;28;20075;-77
2023/07/13 04:45:56;;;;;;;4.70;2.30;;;;;;;29.54;44.43;99944.63;5092831;28;20051;-77
2023/07/13 04:48:25;;;;;;;3.83;2.08;;;;;;;29.55;44.43;99946.31;5092706;28;20138;-78
2023/07/13 04:50:57;;;;;;;4.30;2.05;;;;;;;29.53;44.19;99948.47;5092416;28;20050;-77
2023/07/13 04:53:27;;;;;;;4.25;2.03;;;;;;;29.53;44.35;99958.56;5092405;28;20055;-76
2023/07/13 04:55:55;;;;;;;3.80;2.03;;;;;;;29.53;44.24;99964.94;5092794;28;20408;-76
2023/07/13 04:58:26;;;;;;;3.20;1.95;;;;;;;29.52;44.23;99974.22;5092606;28;20101;-78
2023/07/13 05:00:54;;;;;;;3.13;2.22;;;;;;;29.51;44.19;99983.53;5092563;28;20051;-78
2023/07/13 05:03:22;;;;;;;2.92;1.90;;;;;;;29.51;44.32;99994.53;5092670;28;20056;-77
2023/07/13 05:05:57;;;;;;;4.43;2.33;;;;;;;29.50;44.31;100005.75;5092431;28;20075;-78
2023/07/13 05:08:26;;;;;;;3.10;1.90;;;;;;;29.50;44.45;100031.31;5093012;28;20054;-77
2023/07/13 05:10:54;;;;;;;4.05;2.20;;;;;;;29.50;44.75;100052.44;5092431;28;20048;-78
2023/07/13 05:13:23;;;;;;;5.13;2.25;;;;;;;29.47;44.63;100081.19;5092338;28;20055;-78
2023/07/13 05:15:59;;;;;;;4.10;2.20;;;;;;;29.45;44.46;100113.53;5092221;28;20687;-78
2023/07/13 05:18:28;;;;;;;4.60;2.20;;;;;;;29.44;45.10;100130.25;5091948;28;20048;-77
2023/07/13 05:20:59;;;;;;;4.05;1.90;;;;;;;29.41;45.00;100123.25;5092345;28;20044;-77
2023/07/13 05:23:27;;;;;;;3.42;1.90;;;;;;;29.38;45.45;100131.09;5092415;28;20051;-76
2023/07/13 05:25:56;;;;;;;3.08;2.00;;;;;;;29.36;45.57;100128.59;5092163;28;20063;-75
2023/07/13 05:28:24;;;;;;;4.55;2.20;;;;;;;29.32;45.40;100130.06;5091857;28;20489;-75
2023/07/13 05:30:53;;;;;;;3.67;2.15;;;;;;;29.30;45.69;100129.44;5091967;28;20504;-74
2023/07/13 05:33:23;;;;;;;4.57;2.10;;;;;;;29.29;45.90;100133.25;5092148;28;20054;-75
2023/07/13 05:35:52;;;;;;;4.07;1.95;;;;;;;29.26;46.10;100133.69;5092631;28;20087;-76
2023/07/13 05:38:20;;;;;;;3.63;1.90;;;;;;;29.23;46.07;100117.63;5092610;28;20478;-75
2023/07/13 05:40:48;;;;;;;3.92;2.00;;;;;;;29.21;45.95;100119.75;5092057;28;20048;-76
2023/07/13 05:43:16;;;;;;;4.40;1.80;;;;;;;29.21;45.81;100125.25;5092454;28;20044;-74
2023/07/13 05:45:45;;;;;;;4.75;2.00;;;;;;;29.18;45.98;100120.19;5092207;28;20514;-77
2023/07/13 05:48:13;;;;;;;3.75;1.77;;;;;;;29.16;46.49;100120.41;5092027;28;20536;-76
2023/07/13 05:50:42;;;;;;;2.92;1.70;;;;;;;29.12;46.26;100126.53;5091602;28;20495;-75
2023/07/13 05:53:10;;;;;;;2.72;1.58;;;;;;;29.10;46.61;100136.91;5091636;28;20526;-76
2023/07/13 05:55:43;;;;;;;4.07;1.70;;;;;;;29.08;46.35;100117.91;5091749;28;20546;-76
2023/07/13 05:58:12;;;;;;;3.13;1.73;;;;;;;29.05;46.87;100110.94;5091308;28;20080;-77
2023/07/13 06:00:41;;;;;;;4.57;1.90;;;;;;;29.02;46.78;100094.88;5091284;28;20465;-77
2023/07/13 06:03:09;;;;;;;3.80;1.73;;;;;;;29.02;46.33;100091.31;5091539;28;20097;-78
2023/07/13 06:05:39;;;;;;;3.10;1.75;;;;;;;29.01;46.63;100101.44;5091553;28;20048;-78
2023/07/13 06:08:09;;;;;;;3.47;1.60;;;;;;;28.99;46.51;100084.34;5091550;28;20131;-76
2023/07/13 06:10:38;;;;;;;2.45;1.40;;;;;;;28.98;46.77;100062.59;5091337;28;20052;-78
2023/07/13 06:13:06;;;;;;;3.88;1.70;;;;;;;28.98;46.80;100027.75;5091729;28;20126;-79
2023/07/13 06:15:34;;;;;;;3.25;1.60;;;;;;;28.98;46.65;99999.47;5092125;28;20457;-77
2023/07/13 06:18:02;;;;;;;2.22;1.50;;;;;;;28.98;46.21;99922.59;5090966;28;20094;-78
2023/07/13 06:20:34;;;;;;;2.70;1.60;;;;;;;28.96;46.08;99747.13;5091249;28;20090;-77
2023/07/13 06:23:02;;;;;;;3.07;1.70;;;;;;;28.96;46.33;99673.00;5091244;28;20051;-78
2023/07/13 06:25:32;;;;;;;2.85;1.50;;;;;;;28.97;46.47;99791.88;5091230;28;20083;-78
2023/07/13 06:28:00;;;;;;;4.38;1.88;;;;;;;28.98;46.20;99838.31;5091324;28;20043;-78
2023/07/13 06:30:28;;;;;;;3.10;1.80;;;;;;;28.99;46.20;99770.53;5091442;28;20040;-78
2023/07/13 06:32:57;;;;;;;3.40;1.50;;;;;;;28.97;46.28;99724.09;5091279;28;20048;-78
2023/07/13 06:35:25;;;;;;;2.85;1.40;;;;;;;28.99;46.43;99730.19;5091022;28;20059;-79
2023/07/13 06:37:53;;;;;;;2.67;1.50;;;;;;;28.98;46.07;99731.25;5091128;28;20167;-78
2023/07/13 06:40:21;;;;;;;2.63;1.50;;;;;;;29.00;46.07;99763.97;5091031;28;20549;-80
2023/07/13 06:42:51;;;;;;;2.67;1.48;;;;;;;29.00;46.13;99759.31;5091277;28;20117;-78
2023/07/13 06:45:19;;;;;;;3.65;1.70;;;;;;;29.00;46.08;99751.09;5091083;28;20059;-78
2023/07/13 06:47:47;;;;;;;3.65;1.60;;;;;;;29.00;46.12;99767.56;5091138;28;20106;-78
2023/07/13 06:50:16;;;;;;;3.90;1.60;;;;;;;29.01;45.99;99757.41;5091013;28;20119;-78
2023/07/13 06:52:44;;;;;;;2.92;1.30;;;;;;;29.01;46.39;99752.75;5091247;28;20062;-78
2023/07/13 06:55:12;;;;;;;3.85;1.40;;;;;;;29.00;46.43;99755.72;5091027;28;20051;-78
2023/07/13 06:57:40;;;;;;;3.50;1.70;;;;;;;29.02;46.21;99748.94;5091087;28;20048;-78
2023/07/13 07:00:12;;;;;;;2.60;1.40;;;;;;;29.04;46.16;99743.22;5091019;28;20059;-77
2023/07/13 07:02:40;;;;;;;2.72;1.52;;;;;;;29.04;46.04;99754.22;5090882;28;20052;-74
2023/07/13 07:05:08;;;;;;;3.10;1.60;;;;;;;29.05;46.11;99758.66;5090723;28;20106;-78
2023/07/13 07:07:36;;;;;;;3.30;1.48;;;;;;;29.03;46.50;99731.41;5091054;28;20048;-77
2023/07/13 07:10:05;;;;;;;2.65;1.38;;;;;;;29.06;46.34;99754.84;5090558;28;20062;-75
2023/07/13 07:12:33;;;;;;;3.45;1.65;;;;;;;29.03;46.52;99769.84;5090923;28;20456;-78
2023/07/13 07:15:02;;;;;;;3.50;1.45;;;;;;;29.07;46.36;99776.59;5090829;28;20467;-77
2023/07/13 07:17:31;;;;;;;1.83;1.27;;;;;;;29.07;46.21;99812.28;5091153;28;20135;-78
2023/07/13 07:19:59;;;;;;;2.95;1.48;;;;;;;29.09;46.45;99886.19;5090877;28;20099;-77
2023/07/13 07:22:28;;;;;;;3.15;1.50;;;;;;;29.08;46.53;99906.47;5090603;28;20500;-75
2023/07/13 07:24:56;;;;;;;2.78;1.60;;;;;;;29.07;46.38;99902.88;5090864;28;20051;-77
2023/07/13 07:27:24;;;;;;;2.95;1.65;;;;;;;29.06;46.20;99909.44;5073074;28;20055;-78
2023/07/13 07:29:57;;;;;;;2.63;1.40;;;;;;;29.06;46.56;99925.91;5092518;28;20572;-77
2023/07/13 07:32:32;;;;;;;3.30;1.65;;;;;;;29.05;46.68;99946.22;5094322;28;20113;-77
2023/07/13 07:35:03;;;;;;;2.88;1.40;;;;;;;29.05;46.74;99950.84;5094248;28;20131;-77
2023/07/13 07:37:31;;;;;;;3.10;1.60;;;;;;;29.03;46.82;99950.22;5094142;28;20044;-76
2023/07/13 07:40:02;;;;;;;3.30;1.42;;;;;;;29.04;47.05;99960.97;5094200;28;20461;-77
2023/07/13 07:42:33;;;;;;;2.47;1.40;;;;;;;29.04;46.90;99971.94;5093897;28;20135;-76
2023/07/13 07:45:02;;;;;;;2.38;1.30;;;;;;;29.02;47.07;99965.84;5093831;28;20085;-75
2023/07/13 07:47:31;;;;;;;3.75;1.60;;;;;;;28.99;47.34;99966.28;5093592;28;20135;-77
2023/07/13 07:50:00;;;;;;;2.63;1.50;;;;;;;29.00;47.17;99970.72;5093897;28;20409;-77
2023/07/13 07:52:28;;;;;;;4.03;1.80;;;;;;;28.98;47.62;99967.34;5093901;28;20040;-76
2023/07/13 07:54:56;;;;;;;2.03;1.35;;;;;;;28.98;47.50;99983.81;5093738;28;20157;-76
2023/07/13 07:57:44;;;;;;;3.00;1.40;;;;;;;28.96;47.81;99972.22;5094073;28;20044;-75
2023/07/13 08:00:17;;;;;;;2.45;1.33;;;;;;;28.94;47.91;99974.31;5093726;28;20056;-76
2023/07/13 08:02:49;;;;;;;2.10;1.42;;;;;;;28.93;48.00;99982.78;5093782;28;20044;-74
2023/07/13 08:05:20;;;;;;;3.05;1.48;;;;;;;28.91;47.75;99973.94;5093483;28;20143;-76
2023/07/13 08:08:06;;;;;;;2.17;1.27;;;;;;;28.90;47.62;99975.84;5093589;28;20089;-76
2023/07/13 08:10:36;;;;;;;2.78;1.40;;;;;;;28.91;47.69;99972.03;5093446;28;20048;-76
2023/07/13 08:13:04;;;;;;;3.22;1.67;;;;;;;28.90;48.07;99961.28;5093624;28;20091;-75
2023/07/13 08:15:35;;;;;;;2.28;1.30;;;;;;;28.87;48.10;99953.44;5093519;28;20044;-76
2023/07/13 08:18:05;;;;;;;3.28;1.58;;;;;;;28.88;48.26;99944.16;5093201;28;20055;-76
2023/07/13 08:20:33;;;;;;;2.97;1.52;;;;;;;28.87;48.14;99954.28;5093242;28;20552;-76
2023/07/13 08:23:01;;;;;;;2.40;1.55;;;;;;;28.87;48.04;99964.44;5093355;28;20406;-77
2023/07/13 08:25:30;;;;;;;2.88;1.50;;;;;;;28.85;48.25;99967.38;5093115;28;20044;-76
2023/07/13 08:27:58;;;;;;;2.60;1.45;;;;;;;28.84;48.56;99971.19;5093112;28;20114;-76
2023/07/13 08:30:26;;;;;;;2.38;1.48;;;;;;;28.83;48.81;99980.47;5093109;28;20051;-76
2023/07/13 08:32:54;;;;;;;2.72;1.23;;;;;;;28.83;48.85;99985.13;5093002;28;20044;-76
2023/07/13 08:35:25;;;;;;;2.72;1.48;;;;;;;28.82;49.00;99969.72;5092956;28;20522;-76
2023/07/13 08:37:53;;;;;;;2.33;1.48;;;;;;;28.82;48.89;99970.56;5092885;28;20047;-76
2023/07/13 08:40:26;;;;;;;3.80;1.63;;;;;;;28.84;48.56;99981.31;5092753;28;20075;-76
2023/07/13 08:42:57;;;;;;;2.90;1.55;;;;;;;28.86;48.59;99973.72;5092883;28;20048;-76
2023/07/13 08:45:44;;;;;;;2.42;1.30;;;;;;;28.86;48.67;99974.56;5092647;28;20123;-76
2023/07/13 08:48:18;;;;;;;2.97;1.63;;;;;;;28.87;48.61;99991.88;5093159;28;20040;-76
2023/07/13 08:50:53;;;;;;;3.65;1.50;;;;;;;28.88;48.58;99988.91;5092872;28;20044;-77
2023/07/13 08:53:35;;;;;;;2.30;1.40;;;;;;;28.89;48.67;99982.38;5092695;28;20074;-76
2023/07/13 08:56:10;;;;;;;2.95;1.60;;;;;;;28.91;48.18;99982.16;5092650;28;20588;-76
2023/07/13 08:58:40;;;;;;;2.67;1.40;;;;;;;28.92;48.13;99986.59;5092922;28;20048;-76
2023/07/13 09:01:16;;;;;;;2.97;1.50;;;;;;;28.94;48.13;99981.72;5092627;28;20048;-77
2023/07/13 09:03:58;;;;;;;3.30;1.58;;;;;;;28.94;48.17;99982.56;5092585;28;20040;-76
2023/07/13 09:06:36;;;;;;;2.60;1.58;;;;;;;28.96;48.40;99985.97;5092291;28;20052;-77
2023/07/13 09:09:11;;;;;;;3.38;1.60;;;;;;;28.95;48.52;99981.53;5092336;28;20088;-77
2023/07/13 09:11:47;;;;;;;3.42;1.75;;;;;;;28.97;48.21;99981.31;5092438;28;20055;-76
2023/07/13 09:14:38;;;;;;;3.70;1.50;;;;;;;28.98;48.58;99989.31;5092357;28;20494;-76
2023/07/13 09:17:15;;;;;;;2.88;1.45;;;;;;;28.99;48.19;99982.75;5092616;28;20083;-77
2023/07/13 09:19:47;;;;;;;2.42;1.52;;;;;;;29.00;48.41;99983.59;5092345;28;20075;-77
2023/07/13 09:22:21;;;;;;;2.75;1.40;;;;;;;29.00;48.27;99987.19;5092083;28;20044;-76
2023/07/13 09:24:57;;;;;;;3.20;1.48;;;;;;;29.01;48.27;99980.63;5092016;28;20131;-76
2023/07/13 09:27:31;;;;;;;2.83;1.50;;;;;;;29.05;48.27;99989.28;5091760;28;20044;-76
2023/07/13 09:30:13;;;;;;;2.78;1.58;;;;;;;29.04;48.55;99991.16;5092108;28;20051;-77
2023/07/13 09:32:43;;;;;;;2.88;1.60;;;;;;;29.07;48.39;99992.66;5092109;28;20058;-75
2023/07/13 09:35:15;;;;;;;2.70;1.48;;;;;;;29.08;48.77;99988.84;5091980;28;20047;-76
2023/07/13 09:37:46;;;;;;;3.22;1.60;;;;;;;29.11;48.57;99995.78;5091897;28;20048;-76
2023/07/13 09:40:25;;;;;;;4.50;1.98;;;;;;;29.12;48.90;99989.25;5091852;28;20055;-76
2023/07/13 09:42:55;;;;;;;3.00;1.63;;;;;;;29.14;48.78;99998.09;5091943;28;20058;-76
2023/07/13 09:45:29;;;;;;;2.22;1.55;;;;;;;29.15;48.68;100002.56;5091832;28;20135;-75
2023/07/13 09:48:04;;;;;;;3.03;1.67;;;;;;;29.16;48.44;100001.50;5091688;28;20460;-76
2023/07/13 09:50:32;;;;;;;2.25;1.50;;;;;;;29.17;48.70;100008.66;5091955;28;20044;-76
2023/07/13 09:53:03;;;;;;;3.90;1.80;;;;;;;29.18;48.60;100005.69;5091096;28;20044;-75
2023/07/13 09:55:34;;;;;;;3.35;1.52;;;;;;;29.21;48.98;100004.41;5091485;28;20646;-76
2023/07/13 09:58:10;;;;;;;2.90;1.67;;;;;;;29.22;48.82;100017.91;5091605;28;20089;-76
2023/07/13 10:00:39;;;;;;;2.83;1.70;;;;;;;29.23;48.84;100014.09;5091949;28;20052;-75
2023/07/13 10:03:18;;;;;;;3.10;1.60;;;;;;;29.24;49.21;100014.94;5091725;28;20130;-75
2023/07/13 10:05:49;;;;;;;2.67;1.67;;;;;;;29.26;49.21;99996.38;5091687;28;20044;-76
2023/07/13 10:08:23;;;;;;;3.30;1.85;;;;;;;29.27;49.28;99998.03;5091464;28;20124;-75
2023/07/13 10:10:58;;;;;;;4.05;1.90;;;;;;;29.29;49.29;100006.91;5091544;28;20048;-75
2023/07/13 10:13:36;;;;;;;2.92;1.73;;;;;;;29.29;48.90;100010.47;5091727;28;20051;-75
2023/07/13 10:16:07;;;;;;;2.40;1.60;;;;;;;29.29;49.04;100012.38;5091707;28;20047;-76
2023/07/13 10:18:41;;;;;;;3.33;1.80;;;;;;;29.32;49.12;100006.44;5091498;28;20048;-77
2023/07/13 10:21:13;;;;;;;3.58;1.88;;;;;;;29.34;49.23;100007.09;5091153;28;20100;-76
2023/07/13 10:24:10;;;;;;;3.05;1.67;;;;;;;29.34;48.94;100001.59;5091448;28;20105;-75
2023/07/13 10:26:44;;;;;;;3.30;1.90;;;;;;;29.36;48.99;100007.72;5091291;28;20127;-76
2023/07/13 10:29:16;;;;;;;4.28;2.00;;;;;;;29.37;49.12;100003.91;5091476;28;20041;-76
2023/07/13 10:31:46;;;;;;;4.28;1.98;;;;;;;29.36;49.20;100007.72;5091528;28;20404;-76
2023/07/13 10:34:15;;;;;;;2.88;1.70;;;;;;;29.38;49.08;100012.97;5091724;28;20585;-72
2023/07/13 10:36:45;;;;;;;3.45;1.90;;;;;;;29.40;48.80;100010.84;5092018;28;20046;-75
2023/07/13 10:39:20;;;;;;;4.55;2.00;;;;;;;29.41;49.28;100010.63;5092042;28;20051;-76
2023/07/13 10:41:56;;;;;;;3.30;1.70;;;;;;;29.43;49.35;100004.91;5092156;28;20048;-76
2023/07/13 10:44:28;;;;;;;3.45;1.70;;;;;;;29.43;49.16;100013.97;5092609;28;20043;-75
2023/07/13 10:47:00;;;;;;;3.10;1.77;;;;;;;29.45;48.95;100011.88;5093175;28;20040;-76
2023/07/13 10:49:31;;;;;;;3.83;2.00;;;;;;;29.47;49.10;100009.75;5092521;28;20044;-75
2023/07/13 10:51:59;;;;;;;3.50;1.90;;;;;;;29.51;49.05;100012.91;5091655;28;20086;-77
2023/07/13 10:54:32;;;;;;;3.22;1.85;;;;;;;29.51;48.85;100002.75;5091224;28;20048;-76
2023/07/13 10:57:18;;;;;;;2.80;1.70;;;;;;;29.53;49.05;100021.78;5090913;28;20117;-77
2023/07/13 11:00:09;;;;;;;2.65;1.70;;;;;;;29.55;49.02;100011.44;5091018;28;20481;-76
2023/07/13 11:02:40;;;;;;;3.80;1.80;;;;;;;29.57;48.74;100018.38;5091549;28;20044;-76
2023/07/13 11:05:26;;;;;;;3.50;2.00;;;;;;;29.59;48.83;100013.50;5094840;28;20052;-76
2023/07/13 11:08:03;;;;;;;3.25;1.88;;;;;;;29.61;48.93;99989.38;5094681;28;20048;-77
2023/07/13 11:10:54;;;;;;;2.65;1.83;;;;;;;29.64;48.80;100005.44;5094742;28;20084;-77
2023/07/13 11:13:39;;;;;;;4.32;1.77;;;;;;;29.68;48.43;100011.31;5094752;28;20131;-77
2023/07/13 11:16:37;;;;;;;3.25;1.90;;;;;;;29.71;48.79;99999.03;5093696;28;20131;-77
2023/07/13 11:19:27;;;;;;;3.08;1.98;;;;;;;29.75;48.27;100005.78;5094626;28;20063;-76
2023/07/13 11:22:12;;;;;;;3.60;1.90;;;;;;;29.76;48.46;100002.81;5094471;28;20131;-77
2023/07/13 11:24:59;;;;;;;2.50;1.60;;;;;;;29.80;48.49;100005.94;5094665;28;20476;-77
2023/07/13 11:27:45;;;;;;;3.50;1.83;;;;;;;29.84;48.28;100004.44;5094375;28;20048;-77
2023/07/13 11:30:35;;;;;;;2.80;1.70;;;;;;;29.86;48.52;99994.91;5093932;28;20058;-77
2023/07/13 11:33:12;;;;;;;2.92;1.85;;;;;;;29.87;48.35;99982.00;5094504;28;20144;-76
2023/07/13 11:35:49;;;;;;;3.45;1.80;;;;;;;29.90;48.21;99993.38;5094345;28;20083;-75
2023/07/13 11:38:20;;;;;;;2.55;1.52;;;;;;;29.93;48.29;99987.44;5094162;28;20052;-77
2023/07/13 11:40:54;;;;;;;3.17;1.70;;;;;;;29.96;48.35;99980.66;5094165;28;20041;-77
2023/07/13 11:43:25;;;;;;;2.03;1.50;;;;;;;29.99;48.07;99974.69;5094050;28;20653;-77
2023/07/13 11:45:53;;;;;;;2.50;1.80;;;;;;;30.01;48.40;99972.53;5094387;28;20052;-77
2023/07/13 11:48:25;;;;;;;3.47;1.75;;;;;;;30.04;48.25;99980.38;5093972;28;20048;-76
2023/07/13 11:50:58;;;;;;;2.33;1.75;;;;;;;30.08;48.10;99991.78;5093931;28;20117;-77